sensor_id;sensor_type;location;lat;lon;timestamp;temperature;humidity
37754;DHT22;23596;52.520;13.464;2022-09-09T00:00:20;16.10;99.90
37754;DHT22;23596;52.520;13.464;2022-09-09T00:02:49;16.20;99.90
37754;DHT22;23596;52.520;13.464;2022-09-09T00:07:49;16.10;99.90
37754;DHT22;23596;52.520;13.464;2022-09-09T00:10:37;16.10;99.90
37754;DHT22;23596;52.520;13.464;2022-09-09T00:13:30;16.10;99.90
37754;DHT22;23596;52.520;13.464;2022-09-09T00:16:07;16.10;99.90
37754;DHT22;23596;52.520;13.464;2022-09-09T00:21:13;16.10;99.90
37754;DHT22;23596;52.520;13.464;2022-09-09T00:23:54;16.00;99.90
37754;DHT22;23596;52.520;13.464;2022-09-09T00:26:38;16.00;99.90
37754;DHT22;23596;52.520;13.464;2022-09-09T00:29:35;16.00;99.90
37754;DHT22;23596;52.520;13.464;2022-09-09T00:32:14;16.00;99.90
37754;DHT22;23596;52.520;13.464;2022-09-09T00:34:51;16.00;99.90
37754;DHT22;23596;52.520;13.464;2022-09-09T00:37:19;16.00;99.90
37754;DHT22;23596;52.520;13.464;2022-09-09T00:39:47;16.00;99.90
37754;DHT22;23596;52.520;13.464;2022-09-09T00:42:24;16.00;99.90
37754;DHT22;23596;52.520;13.464;2022-09-09T00:47:44;15.90;99.90
37754;DHT22;23596;52.520;13.464;2022-09-09T00:50:35;15.90;99.90
37754;DHT22;23596;52.520;13.464;2022-09-09T00:56:09;15.90;99.90
37754;DHT22;23596;52.520;13.464;2022-09-09T00:58:37;15.90;99.90
37754;DHT22;23596;52.520;13.464;2022-09-09T01:01:10;15.80;99.90
37754;DHT22;23596;52.520;13.464;2022-09-09T01:03:48;15.90;99.90
37754;DHT22;23596;52.520;13.464;2022-09-09T01:09:13;15.80;99.90
37754;DHT22;23596;52.520;13.464;2022-09-09T01:12:08;15.80;99.90
37754;DHT22;23596;52.520;13.464;2022-09-09T01:25:17;15.70;99.90
37754;DHT22;23596;52.520;13.464;2022-09-09T01:27:47;15.70;99.90
37754;DHT22;23596;52.520;13.464;2022-09-09T01:30:16;15.70;99.90
37754;DHT22;23596;52.520;13.464;2022-09-09T01:32:44;15.70;99.90
37754;DHT22;23596;52.520;13.464;2022-09-09T01:35:50;15.70;99.90
37754;DHT22;23596;52.520;13.464;2022-09-09T01:38:19;15.70;99.90
37754;DHT22;23596;52.520;13.464;2022-09-09T01:40:45;15.60;99.90
37754;DHT22;23596;52.520;13.464;2022-09-09T01:43:11;15.60;99.90
37754;DHT22;23596;52.520;13.464;2022-09-09T01:45:38;15.60;99.90
37754;DHT22;23596;52.520;13.464;2022-09-09T01:48:04;15.60;99.90
37754;DHT22;23596;52.520;13.464;2022-09-09T01:50:30;15.60;99.90
37754;DHT22;23596;52.520;13.464;2022-09-09T01:52:58;15.60;99.90
37754;DHT22;23596;52.520;13.464;2022-09-09T01:55:33;15.60;99.90
37754;DHT22;23596;52.520;13.464;2022-09-09T01:58:06;15.60;99.90
37754;DHT22;23596;52.520;13.464;2022-09-09T02:00:36;15.50;99.90
37754;DHT22;23596;52.520;13.464;2022-09-09T02:03:39;15.50;99.90
37754;DHT22;23596;52.520;13.464;2022-09-09T02:08:36;15.40;99.90
37754;DHT22;23596;52.520;13.464;2022-09-09T02:11:15;15.40;99.90
37754;DHT22;23596;52.520;13.464;2022-09-09T02:13:44;15.40;99.90
37754;DHT22;23596;52.520;13.464;2022-09-09T02:16:18;15.40;99.90
37754;DHT22;23596;52.520;13.464;2022-09-09T02:18:57;15.30;99.90
37754;DHT22;23596;52.520;13.464;2022-09-09T02:21:30;15.30;99.90
37754;DHT22;23596;52.520;13.464;2022-09-09T02:23:59;15.30;99.90
37754;DHT22;23596;52.520;13.464;2022-09-09T02:26:26;15.40;99.90
37754;DHT22;23596;52.520;13.464;2022-09-09T02:28:55;15.30;99.90
37754;DHT22;23596;52.520;13.464;2022-09-09T02:31:23;15.30;99.90
37754;DHT22;23596;52.520;13.464;2022-09-09T02:33:57;15.30;99.90
37754;DHT22;23596;52.520;13.464;2022-09-09T02:36:27;15.30;99.90
37754;DHT22;23596;52.520;13.464;2022-09-09T02:38:55;15.40;99.90
37754;DHT22;23596;52.520;13.464;2022-09-09T02:41:26;15.40;99.90
37754;DHT22;23596;52.520;13.464;2022-09-09T02:43:53;15.30;99.90
37754;DHT22;23596;52.520;13.464;2022-09-09T02:49:28;15.30;99.90
37754;DHT22;23596;52.520;13.464;2022-09-09T02:52:19;15.40;99.90
37754;DHT22;23596;52.520;13.464;2022-09-09T02:54:48;15.30;99.90
37754;DHT22;23596;52.520;13.464;2022-09-09T02:57:24;15.30;99.90
37754;DHT22;23596;52.520;13.464;2022-09-09T02:59:51;15.30;99.90
37754;DHT22;23596;52.520;13.464;2022-09-09T03:02:20;15.30;99.90
37754;DHT22;23596;52.520;13.464;2022-09-09T03:04:45;15.30;99.90
37754;DHT22;23596;52.520;13.464;2022-09-09T03:07:16;15.30;99.90
37754;DHT22;23596;52.520;13.464;2022-09-09T03:09:42;15.30;99.90
37754;DHT22;23596;52.520;13.464;2022-09-09T03:12:08;15.20;99.90
37754;DHT22;23596;52.520;13.464;2022-09-09T03:14:33;15.20;99.90
37754;DHT22;23596;52.520;13.464;2022-09-09T03:16:59;15.20;99.90
37754;DHT22;23596;52.520;13.464;2022-09-09T03:19:26;15.20;99.90
37754;DHT22;23596;52.520;13.464;2022-09-09T03:21:53;15.20;99.90
37754;DHT22;23596;52.520;13.464;2022-09-09T03:24:19;15.20;99.90
37754;DHT22;23596;52.520;13.464;2022-09-09T03:26:45;15.20;99.90
37754;DHT22;23596;52.520;13.464;2022-09-09T03:29:13;15.20;99.90
37754;DHT22;23596;52.520;13.464;2022-09-09T03:31:40;15.20;99.90
37754;DHT22;23596;52.520;13.464;2022-09-09T03:34:06;15.20;99.90
37754;DHT22;23596;52.520;13.464;2022-09-09T03:36:32;15.20;99.90
37754;DHT22;23596;52.520;13.464;2022-09-09T03:38:57;15.30;99.90
37754;DHT22;23596;52.520;13.464;2022-09-09T03:41:23;15.20;99.90
37754;DHT22;23596;52.520;13.464;2022-09-09T03:43:53;15.20;99.90
37754;DHT22;23596;52.520;13.464;2022-09-09T03:46:20;15.10;99.90
37754;DHT22;23596;52.520;13.464;2022-09-09T03:48:46;15.10;99.90
37754;DHT22;23596;52.520;13.464;2022-09-09T03:51:12;15.10;99.90
37754;DHT22;23596;52.520;13.464;2022-09-09T03:53:38;15.10;99.90
37754;DHT22;23596;52.520;13.464;2022-09-09T03:56:04;17.00;99.90
37754;DHT22;23596;52.520;13.464;2022-09-09T03:58:33;15.10;99.90
37754;DHT22;23596;52.520;13.464;2022-09-09T04:01:05;15.10;99.90
37754;DHT22;23596;52.520;13.464;2022-09-09T04:03:31;15.10;99.90
37754;DHT22;23596;52.520;13.464;2022-09-09T04:05:59;15.00;99.90
37754;DHT22;23596;52.520;13.464;2022-09-09T04:08:25;15.00;99.90
37754;DHT22;23596;52.520;13.464;2022-09-09T04:10:51;15.00;99.90
37754;DHT22;23596;52.520;13.464;2022-09-09T04:13:18;15.00;99.90
37754;DHT22;23596;52.520;13.464;2022-09-09T04:15:54;15.00;99.90
37754;DHT22;23596;52.520;13.464;2022-09-09T04:18:20;15.00;99.90
37754;DHT22;23596;52.520;13.464;2022-09-09T04:20:50;15.00;99.90
37754;DHT22;23596;52.520;13.464;2022-09-09T04:23:17;15.00;99.90
37754;DHT22;23596;52.520;13.464;2022-09-09T04:25:54;15.20;99.90
37754;DHT22;23596;52.520;13.464;2022-09-09T04:28:22;14.90;99.90
37754;DHT22;23596;52.520;13.464;2022-09-09T04:30:48;14.90;99.90
37754;DHT22;23596;52.520;13.464;2022-09-09T04:33:14;14.90;99.90
37754;DHT22;23596;52.520;13.464;2022-09-09T04:35:45;14.90;99.90
37754;DHT22;23596;52.520;13.464;2022-09-09T04:38:11;14.90;99.90
37754;DHT22;23596;52.520;13.464;2022-09-09T04:40:36;14.90;99.90
37754;DHT22;23596;52.520;13.464;2022-09-09T04:43:02;14.90;99.90
37754;DHT22;23596;52.520;13.464;2022-09-09T04:45:30;14.90;99.90
37754;DHT22;23596;52.520;13.464;2022-09-09T04:47:56;14.90;99.90
37754;DHT22;23596;52.520;13.464;2022-09-09T04:50:22;14.90;99.90
37754;DHT22;23596;52.520;13.464;2022-09-09T04:52:47;14.90;99.90
37754;DHT22;23596;52.520;13.464;2022-09-09T04:55:14;14.90;99.90
37754;DHT22;23596;52.520;13.464;2022-09-09T04:57:40;14.90;99.90
37754;DHT22;23596;52.520;13.464;2022-09-09T05:00:06;14.90;99.90
37754;DHT22;23596;52.520;13.464;2022-09-09T05:02:32;14.90;99.90
37754;DHT22;23596;52.520;13.464;2022-09-09T05:04:58;14.90;99.90
37754;DHT22;23596;52.520;13.464;2022-09-09T05:07:24;15.00;99.90
37754;DHT22;23596;52.520;13.464;2022-09-09T05:09:50;15.00;99.90
37754;DHT22;23596;52.520;13.464;2022-09-09T05:12:16;15.00;99.90
37754;DHT22;23596;52.520;13.464;2022-09-09T05:14:42;15.00;99.90
37754;DHT22;23596;52.520;13.464;2022-09-09T05:17:08;15.00;99.90
37754;DHT22;23596;52.520;13.464;2022-09-09T05:19:33;15.00;99.90
37754;DHT22;23596;52.520;13.464;2022-09-09T05:21:59;15.00;99.90
37754;DHT22;23596;52.520;13.464;2022-09-09T05:24:26;15.60;99.90
37754;DHT22;23596;52.520;13.464;2022-09-09T05:26:52;15.10;99.90
37754;DHT22;23596;52.520;13.464;2022-09-09T05:29:17;15.10;99.90
37754;DHT22;23596;52.520;13.464;2022-09-09T05:31:45;15.10;99.90
37754;DHT22;23596;52.520;13.464;2022-09-09T05:34:11;15.10;99.90
37754;DHT22;23596;52.520;13.464;2022-09-09T05:36:37;15.10;99.90
37754;DHT22;23596;52.520;13.464;2022-09-09T05:39:02;15.20;99.90
37754;DHT22;23596;52.520;13.464;2022-09-09T05:41:28;15.10;99.90
37754;DHT22;23596;52.520;13.464;2022-09-09T05:43:54;15.10;99.90
37754;DHT22;23596;52.520;13.464;2022-09-09T05:46:22;15.10;99.90
37754;DHT22;23596;52.520;13.464;2022-09-09T05:48:50;15.30;99.90
37754;DHT22;23596;52.520;13.464;2022-09-09T05:51:20;15.10;99.90
37754;DHT22;23596;52.520;13.464;2022-09-09T05:53:47;15.10;99.90
37754;DHT22;23596;52.520;13.464;2022-09-09T05:56:21;15.10;99.90
37754;DHT22;23596;52.520;13.464;2022-09-09T05:58:48;15.20;99.90
37754;DHT22;23596;52.520;13.464;2022-09-09T06:01:17;15.20;99.90
37754;DHT22;23596;52.520;13.464;2022-09-09T06:03:45;15.20;99.90
37754;DHT22;23596;52.520;13.464;2022-09-09T06:06:13;15.30;99.90
37754;DHT22;23596;52.520;13.464;2022-09-09T06:08:41;15.30;99.90
37754;DHT22;23596;52.520;13.464;2022-09-09T06:11:15;15.30;99.90
37754;DHT22;23596;52.520;13.464;2022-09-09T06:13:41;15.30;99.90
37754;DHT22;23596;52.520;13.464;2022-09-09T06:16:17;15.40;99.90
37754;DHT22;23596;52.520;13.464;2022-09-09T06:18:43;15.40;99.90
37754;DHT22;23596;52.520;13.464;2022-09-09T06:21:18;15.40;99.90
37754;DHT22;23596;52.520;13.464;2022-09-09T06:23:44;15.40;99.90
37754;DHT22;23596;52.520;13.464;2022-09-09T06:26:13;15.40;99.90
37754;DHT22;23596;52.520;13.464;2022-09-09T06:28:39;15.40;99.90
37754;DHT22;23596;52.520;13.464;2022-09-09T06:31:07;15.50;99.90
37754;DHT22;23596;52.520;13.464;2022-09-09T06:33:34;15.50;99.90
37754;DHT22;23596;52.520;13.464;2022-09-09T06:36:01;15.60;99.90
37754;DHT22;23596;52.520;13.464;2022-09-09T06:38:27;15.50;99.90
37754;DHT22;23596;52.520;13.464;2022-09-09T06:40:58;16.00;99.90
37754;DHT22;23596;52.520;13.464;2022-09-09T06:43:27;15.60;99.90
37754;DHT22;23596;52.520;13.464;2022-09-09T06:46:05;15.60;99.90
37754;DHT22;23596;52.520;13.464;2022-09-09T06:48:30;15.70;99.90
37754;DHT22;23596;52.520;13.464;2022-09-09T06:51:11;15.70;99.90
37754;DHT22;23596;52.520;13.464;2022-09-09T06:53:39;15.70;99.90
37754;DHT22;23596;52.520;13.464;2022-09-09T06:56:26;15.80;99.90
37754;DHT22;23596;52.520;13.464;2022-09-09T06:58:54;15.80;99.90
37754;DHT22;23596;52.520;13.464;2022-09-09T07:01:22;15.90;99.90
37754;DHT22;23596;52.520;13.464;2022-09-09T07:03:50;15.90;99.90
37754;DHT22;23596;52.520;13.464;2022-09-09T07:06:18;15.90;99.90
37754;DHT22;23596;52.520;13.464;2022-09-09T07:08:47;15.90;99.90
37754;DHT22;23596;52.520;13.464;2022-09-09T07:11:13;16.00;99.90
37754;DHT22;23596;52.520;13.464;2022-09-09T07:13:39;16.00;99.90
37754;DHT22;23596;52.520;13.464;2022-09-09T07:16:14;16.00;99.90
37754;DHT22;23596;52.520;13.464;2022-09-09T07:18:41;16.10;99.90
37754;DHT22;23596;52.520;13.464;2022-09-09T07:21:08;16.10;99.90
37754;DHT22;23596;52.520;13.464;2022-09-09T07:23:34;16.20;99.90
37754;DHT22;23596;52.520;13.464;2022-09-09T07:26:02;16.20;99.90
37754;DHT22;23596;52.520;13.464;2022-09-09T07:28:27;16.30;99.90
37754;DHT22;23596;52.520;13.464;2022-09-09T07:30:57;16.30;99.90
37754;DHT22;23596;52.520;13.464;2022-09-09T07:33:24;16.40;99.90
37754;DHT22;23596;52.520;13.464;2022-09-09T07:35:50;16.50;99.90
37754;DHT22;23596;52.520;13.464;2022-09-09T07:38:16;16.50;99.90
37754;DHT22;23596;52.520;13.464;2022-09-09T07:40:42;16.50;99.90
37754;DHT22;23596;52.520;13.464;2022-09-09T07:43:08;16.60;99.90
37754;DHT22;23596;52.520;13.464;2022-09-09T07:45:34;16.70;99.90
37754;DHT22;23596;52.520;13.464;2022-09-09T07:48:01;16.80;99.90
37754;DHT22;23596;52.520;13.464;2022-09-09T07:50:26;16.80;99.90
37754;DHT22;23596;52.520;13.464;2022-09-09T07:52:52;16.80;99.90
37754;DHT22;23596;52.520;13.464;2022-09-09T07:55:19;17.30;99.90
37754;DHT22;23596;52.520;13.464;2022-09-09T07:57:44;16.90;99.90
37754;DHT22;23596;52.520;13.464;2022-09-09T08:00:11;17.00;99.90
37754;DHT22;23596;52.520;13.464;2022-09-09T08:02:36;17.10;99.90
37754;DHT22;23596;52.520;13.464;2022-09-09T08:05:02;17.10;99.90
37754;DHT22;23596;52.520;13.464;2022-09-09T08:07:28;17.20;99.90
37754;DHT22;23596;52.520;13.464;2022-09-09T08:09:54;17.40;99.90
37754;DHT22;23596;52.520;13.464;2022-09-09T08:12:21;17.30;99.90
37754;DHT22;23596;52.520;13.464;2022-09-09T08:14:47;17.30;99.90
37754;DHT22;23596;52.520;13.464;2022-09-09T08:17:14;17.40;99.90
37754;DHT22;23596;52.520;13.464;2022-09-09T08:19:39;17.40;99.90
37754;DHT22;23596;52.520;13.464;2022-09-09T08:22:05;17.50;99.90
37754;DHT22;23596;52.520;13.464;2022-09-09T08:24:30;17.50;99.90
37754;DHT22;23596;52.520;13.464;2022-09-09T08:26:56;17.60;99.90
37754;DHT22;23596;52.520;13.464;2022-09-09T08:29:22;17.70;99.90
37754;DHT22;23596;52.520;13.464;2022-09-09T08:31:54;17.60;99.90
37754;DHT22;23596;52.520;13.464;2022-09-09T08:34:20;17.70;99.90
37754;DHT22;23596;52.520;13.464;2022-09-09T08:36:47;17.70;99.90
37754;DHT22;23596;52.520;13.464;2022-09-09T08:39:15;17.80;99.90
37754;DHT22;23596;52.520;13.464;2022-09-09T08:44:37;17.70;99.90
37754;DHT22;23596;52.520;13.464;2022-09-09T08:47:12;17.80;99.90
37754;DHT22;23596;52.520;13.464;2022-09-09T08:58:38;17.90;99.90
37754;DHT22;23596;52.520;13.464;2022-09-09T09:09:29;18.20;99.90
37754;DHT22;23596;52.520;13.464;2022-09-09T09:11:58;18.20;99.90
37754;DHT22;23596;52.520;13.464;2022-09-09T09:14:31;18.30;99.90
37754;DHT22;23596;52.520;13.464;2022-09-09T09:17:14;18.30;99.90
37754;DHT22;23596;52.520;13.464;2022-09-09T09:19:41;18.40;99.90
37754;DHT22;23596;52.520;13.464;2022-09-09T09:22:41;18.50;99.90
37754;DHT22;23596;52.520;13.464;2022-09-09T09:27:37;18.80;99.90
37754;DHT22;23596;52.520;13.464;2022-09-09T09:30:19;18.80;99.90
37754;DHT22;23596;52.520;13.464;2022-09-09T09:35:18;18.90;99.90
37754;DHT22;23596;52.520;13.464;2022-09-09T09:37:44;18.80;99.90
37754;DHT22;23596;52.520;13.464;2022-09-09T09:40:20;18.80;99.90
37754;DHT22;23596;52.520;13.464;2022-09-09T09:42:58;18.90;99.90
37754;DHT22;23596;52.520;13.464;2022-09-09T09:45:33;18.90;99.90
37754;DHT22;23596;52.520;13.464;2022-09-09T09:48:02;19.00;99.90
37754;DHT22;23596;52.520;13.464;2022-09-09T09:50:29;19.00;99.90
37754;DHT22;23596;52.520;13.464;2022-09-09T09:52:56;19.00;99.90
37754;DHT22;23596;52.520;13.464;2022-09-09T09:55:23;19.00;99.90
37754;DHT22;23596;52.520;13.464;2022-09-09T09:57:49;19.00;99.90
37754;DHT22;23596;52.520;13.464;2022-09-09T10:00:20;19.20;99.90
37754;DHT22;23596;52.520;13.464;2022-09-09T10:02:47;19.20;99.90
37754;DHT22;23596;52.520;13.464;2022-09-09T10:05:16;19.30;99.90
37754;DHT22;23596;52.520;13.464;2022-09-09T10:07:42;19.30;99.90
37754;DHT22;23596;52.520;13.464;2022-09-09T10:10:25;19.40;99.90
37754;DHT22;23596;52.520;13.464;2022-09-09T10:13:05;19.40;99.90
37754;DHT22;23596;52.520;13.464;2022-09-09T10:18:32;19.60;99.90
37754;DHT22;23596;52.520;13.464;2022-09-09T10:21:19;19.60;99.90
37754;DHT22;23596;52.520;13.464;2022-09-09T10:27:05;19.80;99.90
37754;DHT22;23596;52.520;13.464;2022-09-09T10:32:54;19.90;99.90
37754;DHT22;23596;52.520;13.464;2022-09-09T10:38:20;20.00;99.90
37754;DHT22;23596;52.520;13.464;2022-09-09T10:56:51;20.30;99.90
37754;DHT22;23596;52.520;13.464;2022-09-09T10:59:22;20.30;99.90
37754;DHT22;23596;52.520;13.464;2022-09-09T11:01:53;20.30;99.90
37754;DHT22;23596;52.520;13.464;2022-09-09T11:04:27;20.30;99.90
37754;DHT22;23596;52.520;13.464;2022-09-09T11:07:00;20.50;99.90
37754;DHT22;23596;52.520;13.464;2022-09-09T11:09:32;20.60;99.90
37754;DHT22;23596;52.520;13.464;2022-09-09T11:12:01;20.70;99.90
37754;DHT22;23596;52.520;13.464;2022-09-09T11:14:42;20.80;99.90
37754;DHT22;23596;52.520;13.464;2022-09-09T11:17:26;20.80;99.90
37754;DHT22;23596;52.520;13.464;2022-09-09T11:19:52;20.90;99.90
37754;DHT22;23596;52.520;13.464;2022-09-09T11:24:54;21.00;99.90
37754;DHT22;23596;52.520;13.464;2022-09-09T11:27:30;21.00;99.90
37754;DHT22;23596;52.520;13.464;2022-09-09T11:30:19;21.00;99.90
37754;DHT22;23596;52.520;13.464;2022-09-09T11:38:46;21.10;99.90
37754;DHT22;23596;52.520;13.464;2022-09-09T11:41:13;21.10;99.90
37754;DHT22;23596;52.520;13.464;2022-09-09T11:43:42;21.10;99.90
37754;DHT22;23596;52.520;13.464;2022-09-09T11:46:10;21.00;99.90
37754;DHT22;23596;52.520;13.464;2022-09-09T11:48:40;21.10;99.90
37754;DHT22;23596;52.520;13.464;2022-09-09T11:54:00;21.00;99.90
37754;DHT22;23596;52.520;13.464;2022-09-09T11:56:42;21.00;99.90
37754;DHT22;23596;52.520;13.464;2022-09-09T11:59:23;21.00;99.90
37754;DHT22;23596;52.520;13.464;2022-09-09T12:02:12;21.00;99.90
37754;DHT22;23596;52.520;13.464;2022-09-09T12:05:09;21.00;99.90
37754;DHT22;23596;52.520;13.464;2022-09-09T12:07:56;21.10;99.90
37754;DHT22;23596;52.520;13.464;2022-09-09T12:10:23;21.10;99.90
37754;DHT22;23596;52.520;13.464;2022-09-09T12:12:50;21.10;99.90
37754;DHT22;23596;52.520;13.464;2022-09-09T12:15:17;21.10;99.90
37754;DHT22;23596;52.520;13.464;2022-09-09T12:17:51;21.40;99.90
37754;DHT22;23596;52.520;13.464;2022-09-09T12:25:58;22.80;99.90
37754;DHT22;23596;52.520;13.464;2022-09-09T12:29:05;23.40;99.90
37754;DHT22;23596;52.520;13.464;2022-09-09T12:37:05;24.00;99.90
37754;DHT22;23596;52.520;13.464;2022-09-09T12:39:39;24.10;99.90
37754;DHT22;23596;52.520;13.464;2022-09-09T12:42:21;24.00;99.90
37754;DHT22;23596;52.520;13.464;2022-09-09T12:44:58;24.00;99.90
37754;DHT22;23596;52.520;13.464;2022-09-09T12:47:40;24.00;99.90
37754;DHT22;23596;52.520;13.464;2022-09-09T12:50:37;24.00;99.90
37754;DHT22;23596;52.520;13.464;2022-09-09T12:53:12;23.90;99.90
37754;DHT22;23596;52.520;13.464;2022-09-09T12:55:50;23.80;99.90
37754;DHT22;23596;52.520;13.464;2022-09-09T12:58:18;23.70;99.90
37754;DHT22;23596;52.520;13.464;2022-09-09T13:00:52;23.60;99.90
37754;DHT22;23596;52.520;13.464;2022-09-09T13:03:22;23.40;99.90
37754;DHT22;23596;52.520;13.464;2022-09-09T13:05:48;23.30;99.90
37754;DHT22;23596;52.520;13.464;2022-09-09T13:08:15;23.20;99.90
37754;DHT22;23596;52.520;13.464;2022-09-09T13:10:57;23.10;99.90
37754;DHT22;23596;52.520;13.464;2022-09-09T13:13:35;23.00;99.90
37754;DHT22;23596;52.520;13.464;2022-09-09T13:16:02;22.90;99.90
37754;DHT22;23596;52.520;13.464;2022-09-09T13:18:32;22.90;99.90
37754;DHT22;23596;52.520;13.464;2022-09-09T13:20:59;22.80;99.90
37754;DHT22;23596;52.520;13.464;2022-09-09T13:23:28;22.70;99.90
37754;DHT22;23596;52.520;13.464;2022-09-09T13:26:06;22.60;99.90
37754;DHT22;23596;52.520;13.464;2022-09-09T13:28:44;22.50;99.90
37754;DHT22;23596;52.520;13.464;2022-09-09T13:33:46;22.30;99.90
37754;DHT22;23596;52.520;13.464;2022-09-09T13:36:12;22.30;99.90
37754;DHT22;23596;52.520;13.464;2022-09-09T13:41:33;22.60;99.90
37754;DHT22;23596;52.520;13.464;2022-09-09T13:44:01;22.80;99.90
37754;DHT22;23596;52.520;13.464;2022-09-09T13:49:00;23.50;99.90
37754;DHT22;23596;52.520;13.464;2022-09-09T13:52:03;23.80;99.90
37754;DHT22;23596;52.520;13.464;2022-09-09T13:54:25;24.20;99.90
37754;DHT22;23596;52.520;13.464;2022-09-09T13:56:50;24.80;99.90
37754;DHT22;23596;52.520;13.464;2022-09-09T13:59:18;26.00;99.90
37754;DHT22;23596;52.520;13.464;2022-09-09T14:01:45;25.90;99.90
37754;DHT22;23596;52.520;13.464;2022-09-09T14:04:11;26.20;99.90
37754;DHT22;23596;52.520;13.464;2022-09-09T14:06:37;26.10;99.90
37754;DHT22;23596;52.520;13.464;2022-09-09T14:09:04;25.80;99.90
37754;DHT22;23596;52.520;13.464;2022-09-09T14:11:29;25.50;99.90
37754;DHT22;23596;52.520;13.464;2022-09-09T14:13:55;25.20;99.90
37754;DHT22;23596;52.520;13.464;2022-09-09T14:16:21;24.90;99.90
37754;DHT22;23596;52.520;13.464;2022-09-09T14:18:47;24.60;99.90
37754;DHT22;23596;52.520;13.464;2022-09-09T14:21:12;24.30;99.90
37754;DHT22;23596;52.520;13.464;2022-09-09T14:23:38;24.30;99.90
37754;DHT22;23596;52.520;13.464;2022-09-09T14:26:04;24.30;99.90
37754;DHT22;23596;52.520;13.464;2022-09-09T14:28:30;24.30;99.90
37754;DHT22;23596;52.520;13.464;2022-09-09T14:30:59;24.30;99.90
37754;DHT22;23596;52.520;13.464;2022-09-09T14:33:25;24.40;99.90
37754;DHT22;23596;52.520;13.464;2022-09-09T14:35:56;25.00;99.90
37754;DHT22;23596;52.520;13.464;2022-09-09T14:38:22;26.00;99.90
37754;DHT22;23596;52.520;13.464;2022-09-09T14:40:47;27.30;99.90
37754;DHT22;23596;52.520;13.464;2022-09-09T14:43:13;27.90;99.90
37754;DHT22;23596;52.520;13.464;2022-09-09T14:45:39;28.60;99.90
37754;DHT22;23596;52.520;13.464;2022-09-09T14:48:04;29.40;99.90
37754;DHT22;23596;52.520;13.464;2022-09-09T14:50:30;29.80;99.00
37754;DHT22;23596;52.520;13.464;2022-09-09T14:52:56;29.40;98.70
37754;DHT22;23596;52.520;13.464;2022-09-09T14:55:21;28.80;98.70
37754;DHT22;23596;52.520;13.464;2022-09-09T14:57:47;28.10;99.20
37754;DHT22;23596;52.520;13.464;2022-09-09T15:00:12;27.40;99.70
37754;DHT22;23596;52.520;13.464;2022-09-09T15:02:38;26.70;99.90
37754;DHT22;23596;52.520;13.464;2022-09-09T15:05:05;26.00;99.90
37754;DHT22;23596;52.520;13.464;2022-09-09T15:07:31;25.50;99.90
37754;DHT22;23596;52.520;13.464;2022-09-09T15:09:57;25.20;99.90
37754;DHT22;23596;52.520;13.464;2022-09-09T15:12:23;24.80;99.90
37754;DHT22;23596;52.520;13.464;2022-09-09T15:14:49;24.40;99.90
37754;DHT22;23596;52.520;13.464;2022-09-09T15:17:16;24.20;99.90
37754;DHT22;23596;52.520;13.464;2022-09-09T15:19:41;23.90;99.90
37754;DHT22;23596;52.520;13.464;2022-09-09T15:22:07;24.10;99.90
37754;DHT22;23596;52.520;13.464;2022-09-09T15:24:34;24.90;99.90
37754;DHT22;23596;52.520;13.464;2022-09-09T15:27:01;26.00;99.90
37754;DHT22;23596;52.520;13.464;2022-09-09T15:29:27;27.40;99.90
37754;DHT22;23596;52.520;13.464;2022-09-09T15:31:56;28.60;98.30
37754;DHT22;23596;52.520;13.464;2022-09-09T15:34:21;29.70;96.20
37754;DHT22;23596;52.520;13.464;2022-09-09T15:36:47;30.80;94.10
37754;DHT22;23596;52.520;13.464;2022-09-09T15:39:15;31.20;89.90
37754;DHT22;23596;52.520;13.464;2022-09-09T15:41:42;31.20;90.20
37754;DHT22;23596;52.520;13.464;2022-09-09T15:44:09;31.00;90.20
37754;DHT22;23596;52.520;13.464;2022-09-09T15:46:40;30.60;90.00
37754;DHT22;23596;52.520;13.464;2022-09-09T15:49:07;30.20;90.70
37754;DHT22;23596;52.520;13.464;2022-09-09T15:51:34;29.80;91.70
37754;DHT22;23596;52.520;13.464;2022-09-09T15:54:01;29.30;92.50
37754;DHT22;23596;52.520;13.464;2022-09-09T15:56:28;29.30;91.50
37754;DHT22;23596;52.520;13.464;2022-09-09T15:58:56;29.30;91.60
37754;DHT22;23596;52.520;13.464;2022-09-09T16:01:23;29.40;91.40
37754;DHT22;23596;52.520;13.464;2022-09-09T16:03:49;29.70;91.00
37754;DHT22;23596;52.520;13.464;2022-09-09T16:06:18;30.00;90.70
37754;DHT22;23596;52.520;13.464;2022-09-09T16:08:45;30.10;90.70
37754;DHT22;23596;52.520;13.464;2022-09-09T16:11:14;30.00;90.40
37754;DHT22;23596;52.520;13.464;2022-09-09T16:13:41;29.70;90.30
37754;DHT22;23596;52.520;13.464;2022-09-09T16:16:08;29.20;90.50
37754;DHT22;23596;52.520;13.464;2022-09-09T16:18:39;28.60;91.30
37754;DHT22;23596;52.520;13.464;2022-09-09T16:21:06;28.00;91.70
37754;DHT22;23596;52.520;13.464;2022-09-09T16:23:36;27.30;92.20
37754;DHT22;23596;52.520;13.464;2022-09-09T16:26:02;26.80;92.80
37754;DHT22;23596;52.520;13.464;2022-09-09T16:28:28;26.30;93.90
37754;DHT22;23596;52.520;13.464;2022-09-09T16:30:54;25.80;94.40
37754;DHT22;23596;52.520;13.464;2022-09-09T16:33:19;25.30;95.30
37754;DHT22;23596;52.520;13.464;2022-09-09T16:35:45;24.90;96.50
37754;DHT22;23596;52.520;13.464;2022-09-09T16:38:11;24.50;97.30
37754;DHT22;23596;52.520;13.464;2022-09-09T16:40:37;24.30;97.50
37754;DHT22;23596;52.520;13.464;2022-09-09T16:43:04;23.90;97.60
37754;DHT22;23596;52.520;13.464;2022-09-09T16:45:31;23.80;99.10
37754;DHT22;23596;52.520;13.464;2022-09-09T16:47:57;23.50;98.60
37754;DHT22;23596;52.520;13.464;2022-09-09T16:50:23;23.30;99.60
37754;DHT22;23596;52.520;13.464;2022-09-09T16:52:49;23.10;99.90
37754;DHT22;23596;52.520;13.464;2022-09-09T16:55:14;23.00;99.90
37754;DHT22;23596;52.520;13.464;2022-09-09T16:57:40;22.90;99.90
37754;DHT22;23596;52.520;13.464;2022-09-09T17:00:07;22.80;99.90
37754;DHT22;23596;52.520;13.464;2022-09-09T17:02:32;22.70;99.90
37754;DHT22;23596;52.520;13.464;2022-09-09T17:04:58;22.60;99.90
37754;DHT22;23596;52.520;13.464;2022-09-09T17:07:24;22.50;99.90
37754;DHT22;23596;52.520;13.464;2022-09-09T17:09:50;22.40;99.90
37754;DHT22;23596;52.520;13.464;2022-09-09T17:12:16;22.30;99.90
37754;DHT22;23596;52.520;13.464;2022-09-09T17:14:42;22.20;99.90
37754;DHT22;23596;52.520;13.464;2022-09-09T17:17:08;22.20;99.90
37754;DHT22;23596;52.520;13.464;2022-09-09T17:19:34;22.10;99.90
37754;DHT22;23596;52.520;13.464;2022-09-09T17:21:59;22.10;99.90
37754;DHT22;23596;52.520;13.464;2022-09-09T17:24:26;22.00;99.90